Time;durP1;ratioP1;P1;durP2;ratioP2;P2;SDS_P1;SDS_P2;PMS_P1;PMS_P2;Temp;Humidity;BMP_temperature;BMP_pressure;BME280_temperature;BME280_humidity;BME280_pressure;Samples;Min_cycle;Max_cycle;Signal;HPM_P1;HPM_P2
2021/01/03 00:00:27;;;;;;;3.53;1.20;;;;;;;;;;5052309;28;20060;-68
2021/01/03 00:02:54;;;;;;;2.17;1.20;;;;;;;;;;5052550;28;20040;-68
2021/01/03 00:05:22;;;;;;;3.03;1.70;;;;;;;;;;5053054;28;20434;-69
2021/01/03 00:07:49;;;;;;;2.73;1.30;;;;;;;;;;5052396;28;20029;-68
2021/01/03 00:10:15;;;;;;;2.10;1.20;;;;;;;;;;5052660;28;20021;-69
2021/01/03 00:12:41;;;;;;;3.77;1.30;;;;;;;;;;5052775;28;20025;-69
2021/01/03 00:15:10;;;;;;;2.07;1.10;;;;;;;;;;5052399;28;20466;-68
2021/01/03 00:17:36;;;;;;;2.37;1.23;;;;;;;;;;5055708;28;20471;-68
2021/01/03 00:20:03;;;;;;;2.60;1.40;;;;;;;;;;5056217;28;20099;-68
2021/01/03 00:22:29;;;;;;;4.43;1.17;;;;;;;;;;5056269;28;20028;-68
2021/01/03 00:24:55;;;;;;;2.60;1.37;;;;;;;;;;5056126;28;20040;-69
2021/01/03 00:27:21;;;;;;;1.70;1.10;;;;;;;;;;5056333;28;20028;-69
2021/01/03 00:29:47;;;;;;;2.13;1.30;;;;;;;;;;5055985;28;20481;-68
2021/01/03 00:32:13;;;;;;;2.30;1.00;;;;;;;;;;5055711;28;20032;-68
2021/01/03 00:34:39;;;;;;;3.50;0.93;;;;;;;;;;5056329;28;20029;-68
2021/01/03 00:37:05;;;;;;;2.70;1.20;;;;;;;;;;5055803;28;20025;-68
2021/01/03 00:39:31;;;;;;;4.43;1.23;;;;;;;;;;5055618;28;20480;-68
2021/01/03 00:41:57;;;;;;;1.87;0.90;;;;;;;;;;5055892;28;20024;-69
2021/01/03 00:44:23;;;;;;;1.67;0.90;;;;;;;;;;5055716;28;20047;-68
2021/01/03 00:46:49;;;;;;;1.30;0.70;;;;;;;;;;5055523;28;20397;-68
2021/01/03 00:49:15;;;;;;;1.23;0.80;;;;;;;;;;5055588;28;20878;-68
2021/01/03 00:51:41;;;;;;;2.13;0.87;;;;;;;;;;5055733;28;20025;-68
2021/01/03 00:54:07;;;;;;;3.10;0.70;;;;;;;;;;5055607;28;20075;-68
2021/01/03 00:56:33;;;;;;;3.10;0.77;;;;;;;;;;5055467;28;20082;-68
2021/01/03 00:58:59;;;;;;;1.10;0.60;;;;;;;;;;5055096;28;20367;-68
2021/01/03 01:01:26;;;;;;;2.40;0.80;;;;;;;;;;5055408;28;20079;-68
2021/01/03 01:03:52;;;;;;;4.03;1.07;;;;;;;;;;5054970;28;20383;-68
2021/01/03 01:06:18;;;;;;;2.13;0.87;;;;;;;;;;5055165;28;20025;-68
2021/01/03 01:08:45;;;;;;;0.97;0.60;;;;;;;;;;5055017;28;20040;-69
2021/01/03 01:11:11;;;;;;;1.27;0.60;;;;;;;;;;5055560;28;20135;-68
2021/01/03 01:13:37;;;;;;;0.93;0.57;;;;;;;;;;5055322;28;20025;-68
2021/01/03 01:16:05;;;;;;;2.63;0.40;;;;;;;;;;5055269;28;20033;-69
2021/01/03 01:18:31;;;;;;;1.73;0.50;;;;;;;;;;5054875;28;20504;-68
2021/01/03 01:20:57;;;;;;;1.80;0.50;;;;;;;;;;5054937;28;20471;-68
2021/01/03 01:23:23;;;;;;;2.30;0.33;;;;;;;;;;5054754;28;20044;-68
2021/01/03 01:25:50;;;;;;;0.40;0.40;;;;;;;;;;5054941;28;20029;-69
2021/01/03 01:28:16;;;;;;;2.00;0.30;;;;;;;;;;5054894;28;20040;-68
2021/01/03 01:30:42;;;;;;;0.37;0.23;;;;;;;;;;5054820;28;20036;-68
2021/01/03 01:33:08;;;;;;;0.77;0.23;;;;;;;;;;5054980;28;20024;-69
2021/01/03 01:35:35;;;;;;;0.67;0.50;;;;;;;;;;5054826;28;20490;-68
2021/01/03 01:38:01;;;;;;;0.40;0.20;;;;;;;;;;5054500;28;20544;-68
2021/01/03 01:40:30;;;;;;;1.17;0.30;;;;;;;;;;5054707;28;20025;-68
2021/01/03 01:42:56;;;;;;;1.43;0.30;;;;;;;;;;5054404;28;20096;-69
2021/01/03 01:45:24;;;;;;;0.80;0.37;;;;;;;;;;5053411;28;20025;-68
2021/01/03 01:47:51;;;;;;;2.00;0.40;;;;;;;;;;5054128;28;20087;-68
2021/01/03 01:50:19;;;;;;;0.50;0.30;;;;;;;;;;5054556;28;20033;-68
2021/01/03 01:52:47;;;;;;;1.47;0.50;;;;;;;;;;5054265;28;20053;-68
2021/01/03 01:55:19;;;;;;;0.90;0.40;;;;;;;;;;5054469;28;20061;-68
2021/01/03 01:57:48;;;;;;;1.30;0.73;;;;;;;;;;5053498;28;20451;-69
2021/01/03 02:00:19;;;;;;;1.50;0.90;;;;;;;;;;5051580;28;20141;-68
2021/01/03 02:02:48;;;;;;;2.03;1.00;;;;;;;;;;5051344;28;20083;-68
2021/01/03 02:05:14;;;;;;;0.97;0.60;;;;;;;;;;5052910;28;20501;-68
2021/01/03 02:08:00;;;;;;;0.90;0.60;;;;;;;;;;5054003;28;20100;-69
2021/01/03 02:10:36;;;;;;;2.30;0.40;;;;;;;;;;5053839;28;20029;-68
2021/01/03 02:13:06;;;;;;;2.57;0.47;;;;;;;;;;5053711;28;20444;-68
2021/01/03 02:15:32;;;;;;;2.20;0.50;;;;;;;;;;5053856;28;20063;-68
2021/01/03 02:17:59;;;;;;;2.00;0.33;;;;;;;;;;5053795;28;20055;-68
2021/01/03 02:20:32;;;;;;;0.33;0.20;;;;;;;;;;5053668;28;20025;-68
2021/01/03 02:23:00;;;;;;;1.63;0.40;;;;;;;;;;5053845;28;20051;-68
2021/01/03 02:25:27;;;;;;;0.63;0.40;;;;;;;;;;5053562;28;20049;-68
2021/01/03 02:28:11;;;;;;;1.70;0.53;;;;;;;;;;5053179;28;20049;-68
2021/01/03 02:30:39;;;;;;;0.93;0.30;;;;;;;;;;5053378;28;20056;-69
2021/01/03 02:33:15;;;;;;;0.60;0.40;;;;;;;;;;5053646;28;20025;-69
2021/01/03 02:35:42;;;;;;;1.23;0.40;;;;;;;;;;5052914;28;20108;-69
2021/01/03 02:38:08;;;;;;;2.27;0.50;;;;;;;;;;5053000;28;20029;-69
2021/01/03 02:40:35;;;;;;;0.97;0.60;;;;;;;;;;5053033;28;20028;-69
2021/01/03 02:43:01;;;;;;;1.27;0.50;;;;;;;;;;5053053;28;20068;-69
2021/01/03 02:45:29;;;;;;;1.33;0.53;;;;;;;;;;5053193;28;20025;-69
2021/01/03 02:47:58;;;;;;;1.67;0.50;;;;;;;;;;5053053;28;20445;-69
2021/01/03 02:50:26;;;;;;;1.83;0.40;;;;;;;;;;5053133;28;20029;-69
2021/01/03 02:52:53;;;;;;;0.87;0.43;;;;;;;;;;5053158;28;20492;-69
2021/01/03 02:55:19;;;;;;;2.53;0.47;;;;;;;;;;5052933;28;20448;-68
2021/01/03 02:57:46;;;;;;;1.33;0.60;;;;;;;;;;5052649;28;20071;-69
2021/01/03 03:00:31;;;;;;;0.63;0.40;;;;;;;;;;5053212;28;20075;-68
2021/01/03 03:02:57;;;;;;;1.37;0.70;;;;;;;;;;5052983;28;20021;-69
2021/01/03 03:05:24;;;;;;;0.83;0.40;;;;;;;;;;5053280;28;20048;-68
2021/01/03 03:07:50;;;;;;;1.43;0.40;;;;;;;;;;5053167;28;20024;-69
2021/01/03 03:10:17;;;;;;;0.73;0.40;;;;;;;;;;5052785;28;20021;-68
2021/01/03 03:12:46;;;;;;;1.17;0.40;;;;;;;;;;5052992;28;20025;-69
2021/01/03 03:15:13;;;;;;;0.97;0.40;;;;;;;;;;5052993;28;20045;-69
2021/01/03 03:17:39;;;;;;;0.60;0.40;;;;;;;;;;5052490;28;20037;-68
2021/01/03 03:20:05;;;;;;;0.73;0.40;;;;;;;;;;5053093;28;20028;-69
2021/01/03 03:22:32;;;;;;;0.27;0.27;;;;;;;;;;5052836;28;20070;-69
2021/01/03 03:24:58;;;;;;;0.60;0.40;;;;;;;;;;5052929;28;20083;-69
2021/01/03 03:27:24;;;;;;;2.03;0.50;;;;;;;;;;5052887;28;20021;-68
2021/01/03 03:29:50;;;;;;;0.80;0.50;;;;;;;;;;5052870;28;20493;-68
2021/01/03 03:32:16;;;;;;;0.87;0.50;;;;;;;;;;5053079;28;20454;-68
2021/01/03 03:34:42;;;;;;;2.40;0.50;;;;;;;;;;5052812;28;20397;-69
2021/01/03 03:37:08;;;;;;;0.97;0.43;;;;;;;;;;5052828;28;20432;-68
2021/01/03 03:39:34;;;;;;;0.83;0.40;;;;;;;;;;5052695;28;20033;-68
2021/01/03 03:42:01;;;;;;;0.97;0.40;;;;;;;;;;5052838;28;20052;-68
2021/01/03 03:44:27;;;;;;;0.37;0.37;;;;;;;;;;5052739;28;20033;-68
2021/01/03 03:46:54;;;;;;;0.50;0.33;;;;;;;;;;5052428;28;20036;-68
2021/01/03 03:49:21;;;;;;;2.10;0.40;;;;;;;;;;5052559;28;20025;-68
2021/01/03 03:51:47;;;;;;;0.63;0.40;;;;;;;;;;5054875;28;20016;-68
2021/01/03 03:54:13;;;;;;;1.43;0.60;;;;;;;;;;5056533;28;20025;-68
2021/01/03 03:56:39;;;;;;;5.20;0.50;;;;;;;;;;5056510;28;20021;-68
2021/01/03 03:59:05;;;;;;;3.10;0.50;;;;;;;;;;5056362;28;20031;-69
2021/01/03 04:01:38;;;;;;;0.77;0.40;;;;;;;;;;5056510;28;20021;-68
2021/01/03 04:04:04;;;;;;;;;;;;;;;;;;5056841;28;20040;-68
2021/01/03 04:06:30;;;;;;;0.47;0.37;;;;;;;;;;5056251;28;19987;-68
2021/01/03 04:08:56;;;;;;;2.37;0.60;;;;;;;;;;5056357;28;20427;-68
2021/01/03 04:11:22;;;;;;;1.17;0.50;;;;;;;;;;5056729;28;20094;-68
2021/01/03 04:13:48;;;;;;;1.23;0.60;;;;;;;;;;5056178;28;20025;-68
2021/01/03 04:16:14;;;;;;;2.37;0.60;;;;;;;;;;5055929;28;20021;-68
2021/01/03 04:18:40;;;;;;;1.93;0.60;;;;;;;;;;5056046;28;20049;-68
2021/01/03 04:21:06;;;;;;;3.40;0.73;;;;;;;;;;5056118;28;20024;-68
2021/01/03 04:23:32;;;;;;;1.47;0.70;;;;;;;;;;5055939;28;20089;-69
2021/01/03 04:25:59;;;;;;;2.03;0.77;;;;;;;;;;5055952;28;20111;-68
2021/01/03 04:28:26;;;;;;;1.20;0.60;;;;;;;;;;5056010;28;20032;-69
2021/01/03 04:30:52;;;;;;;1.97;0.77;;;;;;;;;;5056269;28;20107;-69
2021/01/03 04:33:18;;;;;;;1.90;0.70;;;;;;;;;;5056108;28;20032;-68
2021/01/03 04:35:44;;;;;;;1.30;0.60;;;;;;;;;;5055537;28;20094;-69
2021/01/03 04:38:10;;;;;;;5.97;1.00;;;;;;;;;;5055905;28;20033;-69
2021/01/03 04:40:36;;;;;;;1.13;0.70;;;;;;;;;;5055577;28;20025;-69
2021/01/03 04:43:03;;;;;;;1.70;0.67;;;;;;;;;;5055659;28;20492;-68
2021/01/03 04:45:29;;;;;;;1.67;0.50;;;;;;;;;;5055822;28;20033;-68
2021/01/03 04:47:58;;;;;;;2.50;0.60;;;;;;;;;;5055846;28;20386;-68
2021/01/03 04:50:38;;;;;;;2.70;0.60;;;;;;;;;;5055248;28;20031;-69
2021/01/03 04:53:19;;;;;;;1.30;0.60;;;;;;;;;;5055620;28;20104;-69
2021/01/03 04:55:47;;;;;;;1.40;0.60;;;;;;;;;;5055588;28;20537;-69
2021/01/03 04:58:13;;;;;;;1.60;0.83;;;;;;;;;;5055730;28;20036;-68
2021/01/03 05:00:47;;;;;;;1.70;0.60;;;;;;;;;;5055118;28;20037;-68
2021/01/03 05:03:17;;;;;;;2.30;0.80;;;;;;;;;;5054881;28;20413;-68
2021/01/03 05:05:51;;;;;;;1.10;0.60;;;;;;;;;;5055064;28;20056;-68
2021/01/03 05:08:17;;;;;;;2.13;0.70;;;;;;;;;;5055293;28;20059;-69
2021/01/03 05:10:43;;;;;;;1.40;0.60;;;;;;;;;;5054954;28;20025;-68
2021/01/03 05:13:28;;;;;;;1.97;0.80;;;;;;;;;;5055188;28;20025;-68
2021/01/03 05:15:55;;;;;;;2.10;0.60;;;;;;;;;;5054806;28;20104;-68
2021/01/03 05:18:21;;;;;;;1.93;0.50;;;;;;;;;;5055087;28;20098;-68
2021/01/03 05:20:54;;;;;;;2.10;0.73;;;;;;;;;;5054892;28;20024;-69
2021/01/03 05:23:22;;;;;;;1.30;0.60;;;;;;;;;;5055051;28;20478;-68
2021/01/03 05:25:49;;;;;;;1.83;0.67;;;;;;;;;;5054778;28;20017;-68
2021/01/03 05:28:20;;;;;;;1.80;0.70;;;;;;;;;;5054962;28;20546;-68
2021/01/03 05:30:46;;;;;;;1.97;0.50;;;;;;;;;;5054890;28;20029;-69
2021/01/03 05:33:15;;;;;;;1.63;1.13;;;;;;;;;;5054850;28;20021;-69
2021/01/03 05:35:42;;;;;;;3.10;0.90;;;;;;;;;;5054885;28;20071;-69
2021/01/03 05:38:09;;;;;;;1.97;0.70;;;;;;;;;;5054936;28;20025;-69
2021/01/03 05:40:35;;;;;;;6.37;1.10;;;;;;;;;;5054447;28;20033;-68
2021/01/03 05:43:06;;;;;;;2.77;1.00;;;;;;;;;;5054308;28;20463;-68
2021/01/03 05:45:33;;;;;;;2.10;0.67;;;;;;;;;;5054613;28;20036;-68
2021/01/03 05:47:59;;;;;;;3.50;0.90;;;;;;;;;;5054418;28;20048;-68
2021/01/03 05:50:25;;;;;;;2.10;1.30;;;;;;;;;;5054481;28;20500;-68
2021/01/03 05:52:53;;;;;;;2.23;1.10;;;;;;;;;;5054263;28;20056;-68
2021/01/03 05:55:24;;;;;;;2.77;1.30;;;;;;;;;;5054567;28;20060;-68
2021/01/03 05:57:50;;;;;;;3.07;1.00;;;;;;;;;;5054144;28;20086;-69
2021/01/03 06:00:24;;;;;;;2.53;1.03;;;;;;;;;;5054402;28;20461;-68
2021/01/03 06:02:51;;;;;;;2.33;0.93;;;;;;;;;;5052679;28;20438;-69
2021/01/03 06:05:20;;;;;;;1.93;1.07;;;;;;;;;;5054148;28;20060;-69
2021/01/03 06:08:04;;;;;;;2.47;1.17;;;;;;;;;;5054114;28;20466;-68
2021/01/03 06:10:40;;;;;;;1.83;1.03;;;;;;;;;;5054095;28;20024;-68
2021/01/03 06:13:08;;;;;;;2.60;1.00;;;;;;;;;;5053467;28;20036;-69
2021/01/03 06:15:37;;;;;;;5.97;1.20;;;;;;;;;;5053396;28;20109;-68
2021/01/03 06:18:04;;;;;;;4.17;1.83;;;;;;;;;;5053414;28;20045;-69
2021/01/03 06:20:31;;;;;;;2.47;1.00;;;;;;;;;;5053929;28;20013;-68
2021/01/03 06:22:57;;;;;;;2.50;0.93;;;;;;;;;;5053661;28;20354;-67
2021/01/03 06:25:44;;;;;;;3.80;1.23;;;;;;;;;;5053638;28;20021;-68
2021/01/03 06:28:12;;;;;;;5.27;1.53;;;;;;;;;;5053825;28;20078;-68
2021/01/03 06:30:40;;;;;;;2.73;1.20;;;;;;;;;;5053543;28;20031;-69
2021/01/03 06:33:18;;;;;;;4.13;0.90;;;;;;;;;;5053565;28;20023;-69
2021/01/03 06:36:05;;;;;;;2.53;1.20;;;;;;;;;;5053455;28;20418;-68
2021/01/03 06:38:31;;;;;;;2.70;1.70;;;;;;;;;;5052978;28;20037;-68
2021/01/03 06:40:57;;;;;;;3.30;1.37;;;;;;;;;;5053615;28;20051;-68
2021/01/03 06:43:29;;;;;;;3.23;1.40;;;;;;;;;;5053114;28;20089;-69
2021/01/03 06:46:01;;;;;;;4.85;1.45;;;;;;;;;;5053300;28;20017;-68
2021/01/03 06:48:33;;;;;;;2.65;1.50;;;;;;;;;;5053483;28;20039;-69
2021/01/03 06:50:59;;;;;;;4.10;1.42;;;;;;;;;;5053321;28;20485;-68
2021/01/03 06:53:40;;;;;;;6.50;1.80;;;;;;;;;;5053335;28;20033;-68
2021/01/03 06:56:11;;;;;;;6.93;1.57;;;;;;;;;;5053206;28;20021;-68
2021/01/03 06:58:55;;;;;;;2.73;1.47;;;;;;;;;;5053455;28;20107;-69
2021/01/03 07:01:25;;;;;;;3.60;1.33;;;;;;;;;;5053407;28;20545;-68
2021/01/03 07:03:53;;;;;;;3.17;1.50;;;;;;;;;;5052855;28;20060;-68
2021/01/03 07:06:19;;;;;;;3.73;1.50;;;;;;;;;;5053145;28;20431;-68
2021/01/03 07:08:50;;;;;;;4.40;1.60;;;;;;;;;;5053375;28;20063;-68
2021/01/03 07:11:34;;;;;;;4.30;1.60;;;;;;;;;;5053219;28;20021;-68
2021/01/03 07:14:00;;;;;;;3.93;1.77;;;;;;;;;;5053040;28;20553;-69
2021/01/03 07:16:48;;;;;;;3.57;1.73;;;;;;;;;;5052827;28;20095;-68
2021/01/03 07:19:17;;;;;;;2.23;1.30;;;;;;;;;;5053006;28;20497;-69
2021/01/03 07:21:44;;;;;;;4.67;2.40;;;;;;;;;;5053129;28;20021;-68
2021/01/03 07:24:34;;;;;;;3.30;1.83;;;;;;;;;;5052834;28;20039;-68
2021/01/03 07:27:19;;;;;;;4.20;1.87;;;;;;;;;;5059192;28;20083;-68
2021/01/03 07:30:00;;;;;;;5.70;1.90;;;;;;;;;;5057303;28;20444;-69
2021/01/03 07:32:39;;;;;;;4.80;1.63;;;;;;;;;;5058051;28;20029;-69
2021/01/03 07:35:25;;;;;;;3.03;1.53;;;;;;;;;;5057295;28;20028;-68
2021/01/03 07:37:52;;;;;;;4.53;1.70;;;;;;;;;;5056140;28;20033;-68
2021/01/03 07:40:19;;;;;;;3.40;1.57;;;;;;;;;;5059493;28;20056;-68
2021/01/03 07:42:45;;;;;;;3.20;1.70;;;;;;;;;;5059427;28;20033;-68
2021/01/03 07:45:14;;;;;;;5.00;1.40;;;;;;;;;;5059160;28;20096;-68
2021/01/03 07:47:45;;;;;;;7.07;1.70;;;;;;;;;;5058845;28;20604;-68
2021/01/03 07:50:29;;;;;;;4.70;1.90;;;;;;;;;;5054171;28;20029;-68
2021/01/03 07:53:14;;;;;;;5.47;2.10;;;;;;;;;;5035229;28;20490;-69
2021/01/03 07:55:40;;;;;;;5.10;2.07;;;;;;;;;;5034630;28;20025;-68
2021/01/03 07:58:10;;;;;;;3.50;1.70;;;;;;;;;;5035176;28;20104;-68
2021/01/03 08:00:37;;;;;;;5.57;1.60;;;;;;;;;;5035426;28;20025;-69
2021/01/03 08:03:05;;;;;;;3.97;1.93;;;;;;;;;;5036200;28;20029;-69
2021/01/03 08:05:32;;;;;;;7.80;2.13;;;;;;;;;;5039379;28;20033;-68
2021/01/03 08:08:02;;;;;;;3.83;2.07;;;;;;;;;;5038868;28;20079;-68
2021/01/03 08:10:28;;;;;;;8.57;2.80;;;;;;;;;;5039086;28;20064;-69
2021/01/03 08:13:00;;;;;;;3.97;2.17;;;;;;;;;;5039066;28;20531;-68
2021/01/03 08:15:28;;;;;;;9.05;2.95;;;;;;;;;;5039420;28;20044;-69
2021/01/03 08:18:00;;;;;;;10.17;3.23;;;;;;;;;;5037831;28;20049;-68
2021/01/03 08:20:26;;;;;;;6.85;2.65;;;;;;;;;;5037811;28;20033;-68
2021/01/03 08:22:52;;;;;;;8.57;3.23;;;;;;;;;;5038680;28;20029;-68
2021/01/03 08:25:24;;;;;;;6.27;3.20;;;;;;;;;;5058692;28;20435;-68
2021/01/03 08:27:59;;;;;;;8.35;2.97;;;;;;;;;;5058711;28;20021;-68
2021/01/03 08:30:25;;;;;;;7.23;2.90;;;;;;;;;;5041936;28;20034;-69
2021/01/03 08:32:52;;;;;;;6.47;3.37;;;;;;;;;;5055064;28;20130;-68
2021/01/03 08:35:28;;;;;;;7.80;3.30;;;;;;;;;;5056492;28;20024;-68
2021/01/03 08:37:54;;;;;;;8.70;3.30;;;;;;;;;;5051924;28;20512;-68
2021/01/03 08:40:23;;;;;;;6.43;3.20;;;;;;;;;;5055120;28;20047;-68
2021/01/03 08:42:52;;;;;;;9.00;2.80;;;;;;;;;;5054840;28;20382;-68
2021/01/03 08:45:22;;;;;;;6.00;2.97;;;;;;;;;;5054723;28;20041;-68
2021/01/03 08:47:48;;;;;;;8.20;2.90;;;;;;;;;;5054873;28;20816;-70
2021/01/03 08:50:19;;;;;;;4.83;3.10;;;;;;;;;;5054844;28;20040;-70
2021/01/03 08:52:53;;;;;;;7.50;2.90;;;;;;;;;;5054703;28;20041;-68
2021/01/03 08:55:20;;;;;;;7.13;2.70;;;;;;;;;;5054784;28;20029;-69
2021/01/03 08:57:53;;;;;;;6.83;2.83;;;;;;;;;;5054576;28;20036;-71
2021/01/03 09:00:21;;;;;;;5.73;2.60;;;;;;;;;;5054654;28;20028;-68
2021/01/03 09:02:48;;;;;;;7.00;3.03;;;;;;;;;;5054675;28;20086;-67
2021/01/03 09:05:18;;;;;;;6.67;3.60;;;;;;;;;;5055242;28;20375;-67
2021/01/03 09:07:44;;;;;;;11.67;3.80;;;;;;;;;;5055208;28;20049;-68
2021/01/03 09:10:18;;;;;;;8.03;3.40;;;;;;;;;;5055291;28;20039;-68
2021/01/03 09:12:44;;;;;;;8.90;3.93;;;;;;;;;;5054974;28;20024;-68
2021/01/03 09:15:23;;;;;;;8.43;3.83;;;;;;;;;;5054962;28;20029;-69
2021/01/03 09:18:05;;;;;;;14.60;3.30;;;;;;;;;;5054100;28;20494;-68
2021/01/03 09:20:40;;;;;;;8.05;4.35;;;;;;;;;;5051840;28;20099;-68
2021/01/03 09:23:08;;;;;;;12.97;3.53;;;;;;;;;;5054261;28;20025;-67
2021/01/03 09:25:36;;;;;;;9.33;3.37;;;;;;;;;;5054682;28;20452;-68
2021/01/03 09:28:28;;;;;;;7.07;3.50;;;;;;;;;;5055002;28;20466;-68
2021/01/03 09:31:13;;;;;;;13.73;4.20;;;;;;;;;;5054682;28;20037;-68
2021/01/03 09:33:40;;;;;;;10.23;3.73;;;;;;;;;;5052677;28;20029;-68
2021/01/03 09:36:15;;;;;;;14.57;4.40;;;;;;;;;;5052004;28;20025;-68
2021/01/03 09:38:41;;;;;;;8.07;3.10;;;;;;;;;;5052986;28;20025;-68
2021/01/03 09:41:37;;;;;;;9.97;3.30;;;;;;;;;;5055180;28;20105;-68
2021/01/03 09:44:03;;;;;;;6.73;3.33;;;;;;;;;;5053993;28;20409;-67
2021/01/03 09:46:31;;;;;;;8.00;3.13;;;;;;;;;;5054600;28;20107;-70
2021/01/03 09:49:11;;;;;;;12.87;3.43;;;;;;;;;;5053607;28;20029;-68
2021/01/03 09:51:55;;;;;;;11.30;2.10;;;;;;;;;;5054539;28;20029;-68
2021/01/03 09:54:23;;;;;;;10.67;2.37;;;;;;;;;;5054464;28;20431;-68
2021/01/03 09:56:51;;;;;;;6.73;2.00;;;;;;;;;;5054573;28;20383;-68
2021/01/03 09:59:19;;;;;;;7.10;2.70;;;;;;;;;;5052404;28;20028;-68
2021/01/03 10:01:46;;;;;;;12.93;2.63;;;;;;;;;;5051276;28;20415;-68
2021/01/03 10:04:23;;;;;;;7.03;2.50;;;;;;;;;;5051845;28;20177;-68
2021/01/03 10:06:55;;;;;;;6.50;2.77;;;;;;;;;;5053691;28;20033;-68
2021/01/03 10:09:24;;;;;;;4.82;1.52;;;;;;;;;;5054124;28;20036;-68
2021/01/03 10:11:51;;;;;;;9.97;2.47;;;;;;;;;;5053966;28;20029;-68
2021/01/03 10:14:28;;;;;;;10.53;1.70;;;;;;;;;;5053829;28;20532;-68
2021/01/03 10:16:54;;;;;;;7.25;1.70;;;;;;;;;;5053633;28;20032;-68
2021/01/03 10:19:22;;;;;;;10.00;1.55;;;;;;;;;;5054310;28;20044;-68
2021/01/03 10:21:49;;;;;;;9.38;1.73;;;;;;;;;;5053493;28;20135;-68
2021/01/03 10:24:25;;;;;;;9.70;2.00;;;;;;;;;;5053790;28;20041;-67
2021/01/03 10:27:03;;;;;;;8.27;2.67;;;;;;;;;;5053815;28;20381;-68
2021/01/03 10:29:29;;;;;;;10.43;2.58;;;;;;;;;;5053424;28;20029;-68
2021/01/03 10:31:55;;;;;;;6.32;1.45;;;;;;;;;;5053695;28;20039;-67
2021/01/03 10:34:22;;;;;;;6.63;1.45;;;;;;;;;;5053542;28;20028;-68
2021/01/03 10:36:48;;;;;;;6.93;1.23;;;;;;;;;;5053374;28;20104;-68
2021/01/03 10:39:16;;;;;;;3.70;1.10;;;;;;;;;;5052560;28;20440;-68
2021/01/03 10:41:42;;;;;;;7.22;1.83;;;;;;;;;;5053518;28;20048;-68
2021/01/03 10:44:10;;;;;;;5.05;1.58;;;;;;;;;;5053551;28;20051;-68
2021/01/03 10:46:36;;;;;;;4.85;1.23;;;;;;;;;;5053407;28;20083;-68
2021/01/03 10:49:02;;;;;;;7.10;1.17;;;;;;;;;;5053489;28;20033;-67
2021/01/03 10:51:32;;;;;;;6.57;1.50;;;;;;;;;;5053449;28;20462;-68
2021/01/03 10:53:58;;;;;;;9.45;1.40;;;;;;;;;;5053578;28;20096;-68
2021/01/03 10:56:25;;;;;;;7.28;1.35;;;;;;;;;;5053330;28;20032;-68
2021/01/03 10:58:51;;;;;;;8.18;1.67;;;;;;;;;;5051808;28;20496;-68
2021/01/03 11:01:17;;;;;;;9.20;1.60;;;;;;;;;;5052520;28;20082;-68
2021/01/03 11:03:43;;;;;;;6.15;1.30;;;;;;;;;;5052865;28;20470;-68
2021/01/03 11:06:09;;;;;;;5.47;1.42;;;;;;;;;;5052936;28;20025;-68
2021/01/03 11:08:37;;;;;;;5.65;1.48;;;;;;;;;;5053007;28;20394;-67
2021/01/03 11:11:03;;;;;;;5.70;1.35;;;;;;;;;;5052689;28;20028;-68
2021/01/03 11:13:29;;;;;;;8.60;2.20;;;;;;;;;;5052899;28;20112;-68
2021/01/03 11:15:55;;;;;;;8.65;1.73;;;;;;;;;;5052455;28;20065;-68
2021/01/03 11:18:21;;;;;;;5.57;1.17;;;;;;;;;;5049426;28;20110;-68
2021/01/03 11:20:47;;;;;;;5.35;1.40;;;;;;;;;;5049963;28;20028;-67
2021/01/03 11:23:13;;;;;;;8.85;1.30;;;;;;;;;;5050829;28;20028;-68
2021/01/03 11:25:39;;;;;;;6.43;1.75;;;;;;;;;;5052529;28;20029;-68
2021/01/03 11:28:05;;;;;;;11.43;1.75;;;;;;;;;;5052887;28;20040;-66
2021/01/03 11:30:31;;;;;;;6.10;1.25;;;;;;;;;;5052513;28;20429;-65
2021/01/03 11:32:57;;;;;;;9.68;1.50;;;;;;;;;;5052396;28;20034;-64
2021/01/03 11:35:23;;;;;;;11.30;2.08;;;;;;;;;;5052833;28;20033;-64
2021/01/03 11:37:49;;;;;;;7.65;1.50;;;;;;;;;;5052475;28;20398;-65
2021/01/03 11:40:16;;;;;;;5.50;1.52;;;;;;;;;;5052553;28;20032;-66
2021/01/03 11:42:42;;;;;;;6.05;1.30;;;;;;;;;;5036912;28;20021;-64
2021/01/03 11:45:10;;;;;;;6.93;1.60;;;;;;;;;;5032110;28;20112;-66
2021/01/03 11:47:37;;;;;;;6.05;1.88;;;;;;;;;;5032352;28;20025;-65
2021/01/03 11:50:03;;;;;;;6.80;1.98;;;;;;;;;;5032728;28;20057;-65
2021/01/03 11:52:30;;;;;;;9.25;3.63;;;;;;;;;;5032433;28;20108;-64
2021/01/03 11:54:57;;;;;;;8.05;1.70;;;;;;;;;;5032476;28;20033;-64
2021/01/03 11:57:23;;;;;;;5.82;1.38;;;;;;;;;;5032456;28;20033;-64
2021/01/03 11:59:49;;;;;;;8.95;1.38;;;;;;;;;;5032674;28;20030;-64
2021/01/03 12:02:15;;;;;;;9.88;2.15;;;;;;;;;;5029961;28;20084;-64
2021/01/03 12:04:41;;;;;;;8.50;1.75;;;;;;;;;;5030390;28;20060;-65
2021/01/03 12:07:08;;;;;;;6.50;1.67;;;;;;;;;;5031638;28;20033;-64
2021/01/03 12:09:34;;;;;;;6.28;2.05;;;;;;;;;;5032606;28;20030;-64
2021/01/03 12:12:02;;;;;;;8.38;1.65;;;;;;;;;;5033393;28;20045;-64
2021/01/03 12:14:29;;;;;;;6.43;1.77;;;;;;;;;;5036143;28;20029;-65
2021/01/03 12:16:59;;;;;;;5.97;1.75;;;;;;;;;;5036130;28;20030;-64
2021/01/03 12:19:25;;;;;;;5.25;1.80;;;;;;;;;;5036388;28;20378;-64
2021/01/03 12:21:51;;;;;;;7.88;1.60;;;;;;;;;;5036434;28;20108;-64
2021/01/03 12:24:18;;;;;;;6.72;1.52;;;;;;;;;;5033388;28;20116;-64
2021/01/03 12:26:45;;;;;;;7.38;1.88;;;;;;;;;;5033347;28;20029;-64
2021/01/03 12:29:12;;;;;;;7.75;1.92;;;;;;;;;;5034061;28;20025;-64
2021/01/03 12:31:43;;;;;;;6.75;1.92;;;;;;;;;;5035717;28;20102;-64
2021/01/03 12:34:09;;;;;;;10.65;2.00;;;;;;;;;;5035809;28;20033;-64
2021/01/03 12:36:35;;;;;;;4.80;1.40;;;;;;;;;;5035788;28;20025;-64
2021/01/03 12:39:02;;;;;;;7.35;2.00;;;;;;;;;;5035520;28;20555;-64
2021/01/03 12:41:28;;;;;;;12.95;2.20;;;;;;;;;;5035777;28;20637;-64
2021/01/03 12:43:54;;;;;;;7.85;1.63;;;;;;;;;;5035658;28;20513;-64
2021/01/03 12:46:27;;;;;;;10.95;1.80;;;;;;;;;;5035361;28;20032;-64
2021/01/03 12:48:53;;;;;;;7.93;2.45;;;;;;;;;;5035582;28;20028;-64
2021/01/03 12:51:19;;;;;;;7.55;2.05;;;;;;;;;;5035526;28;20024;-64
2021/01/03 12:53:45;;;;;;;11.18;4.40;;;;;;;;;;5034985;28;20079;-64
2021/01/03 12:56:11;;;;;;;7.40;2.20;;;;;;;;;;5035228;28;20026;-64
2021/01/03 12:58:37;;;;;;;9.20;1.75;;;;;;;;;;5035502;28;20079;-64
2021/01/03 13:01:03;;;;;;;12.45;2.67;;;;;;;;;;5035390;28;20025;-64
2021/01/03 13:03:29;;;;;;;7.07;1.92;;;;;;;;;;5035270;28;20080;-65
2021/01/03 13:05:55;;;;;;;8.95;1.70;;;;;;;;;;5035064;28;20034;-65
2021/01/03 13:08:22;;;;;;;5.95;1.88;;;;;;;;;;5035148;28;20005;-64
2021/01/03 13:10:48;;;;;;;6.32;1.67;;;;;;;;;;5035520;28;20382;-64
2021/01/03 13:13:14;;;;;;;8.35;1.80;;;;;;;;;;5035459;28;20493;-64
2021/01/03 13:15:40;;;;;;;9.57;2.40;;;;;;;;;;5035033;28;20501;-64
2021/01/03 13:18:06;;;;;;;9.98;2.67;;;;;;;;;;5035084;28;20041;-64
2021/01/03 13:20:32;;;;;;;9.23;3.58;;;;;;;;;;5035109;28;20026;-64
2021/01/03 13:22:58;;;;;;;11.10;5.00;;;;;;;;;;5034493;28;20108;-64
2021/01/03 13:25:25;;;;;;;13.57;5.72;;;;;;;;;;5035223;28;20521;-64
2021/01/03 13:27:53;;;;;;;6.80;2.63;;;;;;;;;;5034678;28;20059;-64
2021/01/03 13:30:20;;;;;;;8.27;2.63;;;;;;;;;;5034231;28;20112;-64
2021/01/03 13:32:46;;;;;;;12.48;5.32;;;;;;;;;;5034475;28;20102;-64
2021/01/03 13:35:13;;;;;;;9.63;3.58;;;;;;;;;;5031924;28;20500;-64
2021/01/03 13:37:39;;;;;;;6.55;3.67;;;;;;;;;;5032151;28;20113;-65
2021/01/03 13:40:06;;;;;;;8.80;3.38;;;;;;;;;;5034636;28;20033;-64
2021/01/03 13:42:32;;;;;;;10.43;3.25;;;;;;;;;;5034668;28;20039;-64
2021/01/03 13:44:58;;;;;;;8.75;3.08;;;;;;;;;;5034714;28;20065;-64
2021/01/03 13:47:24;;;;;;;12.20;5.47;;;;;;;;;;5034461;28;20040;-63
2021/01/03 13:49:50;;;;;;;9.10;4.50;;;;;;;;;;5034599;28;20459;-64
2021/01/03 13:52:16;;;;;;;9.82;2.85;;;;;;;;;;5034470;28;20033;-64
2021/01/03 13:54:42;;;;;;;7.57;2.85;;;;;;;;;;5034625;28;20022;-64
2021/01/03 13:57:08;;;;;;;9.10;3.40;;;;;;;;;;5034271;28;20033;-64
2021/01/03 13:59:35;;;;;;;7.13;3.10;;;;;;;;;;5034130;28;20087;-66
2021/01/03 14:02:04;;;;;;;11.88;5.10;;;;;;;;;;5034281;28;20034;-64
2021/01/03 14:04:30;;;;;;;13.55;5.65;;;;;;;;;;5034301;28;20033;-64
2021/01/03 14:06:56;;;;;;;11.80;5.22;;;;;;;;;;5032210;28;20104;-66
2021/01/03 14:09:22;;;;;;;14.70;5.85;;;;;;;;;;5033884;28;20025;-64
2021/01/03 14:11:48;;;;;;;7.72;3.28;;;;;;;;;;5034880;28;20028;-65
2021/01/03 14:14:14;;;;;;;6.10;2.88;;;;;;;;;;5053475;28;20424;-64
2021/01/03 14:16:40;;;;;;;8.43;2.97;;;;;;;;;;5053054;28;20360;-66
2021/01/03 14:19:07;;;;;;;8.20;2.92;;;;;;;;;;5053147;28;20092;-66
2021/01/03 14:21:38;;;;;;;6.03;2.40;;;;;;;;;;5053107;28;20025;-65
2021/01/03 14:24:04;;;;;;;5.53;2.60;;;;;;;;;;5053318;28;20033;-65
2021/01/03 14:26:49;;;;;;;6.10;2.85;;;;;;;;;;5053357;28;20485;-65
2021/01/03 14:29:22;;;;;;;6.38;3.00;;;;;;;;;;5050669;28;20478;-64
2021/01/03 14:31:52;;;;;;;8.03;3.30;;;;;;;;;;5030017;28;20525;-64
2021/01/03 14:34:18;;;;;;;10.77;3.92;;;;;;;;;;5032177;28;20025;-64
2021/01/03 14:36:44;;;;;;;11.65;4.35;;;;;;;;;;5033692;28;20026;-64
2021/01/03 14:39:11;;;;;;;10.50;4.80;;;;;;;;;;5033527;28;20022;-63
2021/01/03 14:41:37;;;;;;;9.73;4.30;;;;;;;;;;5032971;28;20026;-64
2021/01/03 14:44:03;;;;;;;9.07;4.28;;;;;;;;;;5032667;28;20364;-64
2021/01/03 14:46:36;;;;;;;10.65;4.55;;;;;;;;;;5032649;28;20038;-64
2021/01/03 14:49:08;;;;;;;14.98;5.22;;;;;;;;;;5032871;28;20032;-64
2021/01/03 14:51:41;;;;;;;8.48;5.13;;;;;;;;;;5033213;28;20374;-64